createdAt,value
2022-10-17T00:02:01.486Z,98901.66
2022-10-17T00:04:28.007Z,98903.56
2022-10-17T00:06:54.886Z,98898.59
2022-10-17T00:09:21.420Z,98901.53
2022-10-17T00:11:47.931Z,98895.63
2022-10-17T00:14:14.447Z,98894.19
2022-10-17T00:16:41.048Z,98893.97
2022-10-17T00:19:07.895Z,98892.09
2022-10-17T00:21:34.469Z,98892.91
2022-10-17T00:24:01.550Z,98885.41
2022-10-17T00:26:30.954Z,98885.75
2022-10-17T00:28:57.563Z,98875.75
2022-10-17T00:31:24.907Z,98877.38
2022-10-17T00:33:52.346Z,98873.50
2022-10-17T00:36:22.582Z,98872.41
2022-10-17T00:38:55.620Z,98865.31
2022-10-17T00:41:25.463Z,98876.59
2022-10-17T00:43:58.044Z,98874.94
2022-10-17T00:46:30.230Z,98864.78
2022-10-17T00:48:58.832Z,98882.84
2022-10-17T00:51:34.387Z,98878.03
2022-10-17T00:54:02.897Z,98879.88
2022-10-17T00:56:30.443Z,98878.09
2022-10-17T00:58:57.262Z,98878.97
2022-10-17T01:01:24.034Z,98880.47
2022-10-17T01:03:50.709Z,98877.63
2022-10-17T01:06:17.312Z,98883.66
2022-10-17T01:08:43.969Z,98884.25
2022-10-17T01:11:25.614Z,98873.88
2022-10-17T01:13:59.137Z,98875.50
2022-10-17T01:16:25.899Z,98884.81
2022-10-17T01:19:01.681Z,98878.03
2022-10-17T01:21:40.183Z,98879.50
2022-10-17T01:24:37.740Z,98882.28
2022-10-17T01:27:35.270Z,98884.00
2022-10-17T01:30:01.688Z,98877.63
2022-10-17T01:32:35.287Z,98873.03
2022-10-17T01:35:10.608Z,98878.66
2022-10-17T01:37:58.208Z,98883.69
2022-10-17T01:40:27.501Z,98884.09
2022-10-17T01:43:25.930Z,98887.25
2022-10-17T01:46:00.376Z,98878.78
2022-10-17T01:48:34.441Z,98882.75
2022-10-17T01:51:11.419Z,98887.97
2022-10-17T01:53:45.735Z,98878.25
2022-10-17T01:56:14.625Z,98878.78
2022-10-17T01:58:50.714Z,98883.31
2022-10-17T02:01:18.942Z,98883.84
2022-10-17T02:03:47.515Z,98885.22
2022-10-17T02:06:13.970Z,98886.91
2022-10-17T02:08:49.455Z,98892.59
2022-10-17T02:11:23.677Z,98889.41
2022-10-17T02:14:05.333Z,98888.97
2022-10-17T02:17:04.265Z,98895.22
2022-10-17T02:19:49.509Z,98894.44
2022-10-17T02:22:28.488Z,98902.41
2022-10-17T02:25:02.814Z,98905.16
2022-10-17T02:27:43.890Z,98904.72
2022-10-17T02:30:42.939Z,98916.44
2022-10-17T02:33:14.037Z,98912.72
2022-10-17T02:35:46.312Z,98915.91
2022-10-17T02:38:14.377Z,98926.00
2022-10-17T02:40:42.661Z,98936.22
2022-10-17T02:43:09.301Z,98933.31
2022-10-17T02:45:37.887Z,98935.72
2022-10-17T02:48:23.916Z,98930.09
2022-10-17T02:51:12.083Z,98939.25
2022-10-17T02:53:55.585Z,98931.72
2022-10-17T02:56:24.758Z,98935.13
2022-10-17T02:58:55.957Z,98933.31
2022-10-17T03:01:22.906Z,98936.69
2022-10-17T03:03:49.408Z,98941.38
2022-10-17T03:06:16.123Z,98944.09
2022-10-17T03:08:42.634Z,98946.44
2022-10-17T03:11:09.288Z,98940.41
2022-10-17T03:13:38.963Z,98951.06
2022-10-17T03:16:06.652Z,98951.94
2022-10-17T03:18:33.126Z,98946.63
2022-10-17T03:20:59.712Z,98952.03
2022-10-17T03:23:26.182Z,98949.31
2022-10-17T03:25:52.718Z,98947.66
2022-10-17T03:28:19.192Z,98954.63
2022-10-17T03:30:45.699Z,98955.59
2022-10-17T03:33:12.244Z,98958.38
2022-10-17T03:35:40.504Z,98954.53
2022-10-17T03:38:07.203Z,98953.16
2022-10-17T03:40:33.670Z,98956.06
2022-10-17T03:43:00.118Z,98951.88
2022-10-17T03:45:26.601Z,98958.53
2022-10-17T03:47:53.109Z,98960.47
2022-10-17T03:50:19.625Z,98960.25
2022-10-17T03:52:48.426Z,98961.22
2022-10-17T03:55:15.895Z,98965.22
2022-10-17T03:57:44.794Z,98964.88
2022-10-17T04:00:13.071Z,98954.84
2022-10-17T04:02:39.737Z,98964.31
2022-10-17T04:05:06.875Z,98963.63
2022-10-17T04:07:33.401Z,98957.47
2022-10-17T04:09:59.870Z,98961.84
2022-10-17T04:12:26.426Z,98954.09
2022-10-17T04:14:53.226Z,98950.31
2022-10-17T04:17:19.715Z,98959.84
2022-10-17T04:19:46.230Z,98948.00
2022-10-17T04:22:12.708Z,98961.19
2022-10-17T04:24:39.155Z,98956.69
2022-10-17T04:27:05.611Z,98959.91
2022-10-17T04:29:32.159Z,98952.88
2022-10-17T04:31:58.750Z,98954.53
2022-10-17T04:34:25.204Z,98955.91
2022-10-17T04:36:52.011Z,98953.31
2022-10-17T04:39:18.709Z,98955.91
2022-10-17T04:41:45.207Z,98959.47
2022-10-17T04:44:12.181Z,98950.88
2022-10-17T04:46:38.728Z,98947.84
2022-10-17T04:49:05.210Z,98944.66
2022-10-17T04:51:32.127Z,98948.63
2022-10-17T04:53:58.620Z,98945.94
2022-10-17T04:56:25.759Z,98948.94
2022-10-17T04:58:52.604Z,98939.97
2022-10-17T05:01:22.027Z,98940.19
2022-10-17T05:03:49.036Z,98947.38
2022-10-17T05:06:21.916Z,98936.13
2022-10-17T05:08:48.982Z,98945.66
2022-10-17T05:11:24.120Z,98944.94
2022-10-17T05:13:56.345Z,98941.16
2022-10-17T05:16:23.807Z,98946.47
2022-10-17T05:18:53.064Z,98955.09
2022-10-17T05:21:20.428Z,98957.81
2022-10-17T05:23:47.060Z,98969.44
2022-10-17T05:26:14.223Z,98963.31
2022-10-17T05:28:41.266Z,98977.66
2022-10-17T05:31:10.164Z,98975.00
2022-10-17T05:33:37.473Z,98981.09
2022-10-17T05:36:04.779Z,98985.47
2022-10-17T05:38:31.264Z,98983.53
2022-10-17T05:41:03.213Z,98991.72
2022-10-17T05:43:30.118Z,98984.78
2022-10-17T05:45:57.321Z,98987.19
2022-10-17T05:48:24.112Z,98988.69
2022-10-17T05:50:57.111Z,98989.22
2022-10-17T05:53:23.603Z,98995.41
2022-10-17T05:55:57.790Z,98992.88
2022-10-17T05:58:45.605Z,98994.00
2022-10-17T06:01:12.875Z,98996.09
2022-10-17T06:03:39.697Z,99001.06
2022-10-17T06:06:12.229Z,99000.75
2022-10-17T06:08:39.260Z,99009.50
2022-10-17T06:11:09.257Z,99002.84
2022-10-17T06:13:37.841Z,99012.56
2022-10-17T06:16:04.593Z,99009.84
2022-10-17T06:18:31.099Z,99006.09
2022-10-17T06:21:05.443Z,99006.38
2022-10-17T06:23:32.551Z,99003.72
2022-10-17T06:26:04.203Z,99009.84
2022-10-17T06:28:30.974Z,99012.44
2022-10-17T06:30:57.687Z,99016.63
2022-10-17T06:33:24.329Z,99015.69
2022-10-17T06:35:54.979Z,99023.94
2022-10-17T06:38:22.015Z,99028.66
2022-10-17T06:40:48.727Z,99033.25
2022-10-17T06:43:15.458Z,99029.50
2022-10-17T06:45:42.040Z,99039.81
2022-10-17T06:48:08.856Z,99039.72
2022-10-17T06:50:35.502Z,99043.22
2022-10-17T06:53:02.142Z,99041.22
2022-10-17T06:55:28.814Z,99051.88
2022-10-17T06:57:56.475Z,99056.41
2022-10-17T07:00:23.607Z,99061.72
2022-10-17T07:02:50.272Z,99065.94
2022-10-17T07:05:17.378Z,99071.22
2022-10-17T07:07:45.515Z,99062.72
2022-10-17T07:10:13.966Z,99068.75
2022-10-17T07:12:40.517Z,99067.81
2022-10-17T07:15:07.472Z,99063.28
2022-10-17T07:17:34.150Z,99069.81
2022-10-17T07:20:00.813Z,99069.34
2022-10-17T07:22:27.517Z,99063.28
2022-10-17T07:24:54.012Z,99072.72
2022-10-17T07:27:20.957Z,99085.97
2022-10-17T07:29:47.602Z,99072.72
2022-10-17T07:32:14.133Z,99076.47
2022-10-17T07:34:40.914Z,99072.88
2022-10-17T07:37:07.559Z,99079.53
2022-10-17T07:39:35.692Z,99082.59
2022-10-17T07:42:02.337Z,99073.25
2022-10-17T07:44:29.154Z,99082.81
2022-10-17T07:46:55.771Z,99080.66
2022-10-17T07:49:22.264Z,99088.81
2022-10-17T07:51:49.557Z,99083.94
2022-10-17T07:54:18.220Z,99079.16
2022-10-17T07:56:50.292Z,99084.47
2022-10-17T07:59:18.619Z,99091.97
2022-10-17T08:01:45.238Z,99079.81
2022-10-17T08:04:11.839Z,99085.59
2022-10-17T08:06:38.579Z,99081.59
2022-10-17T08:09:05.241Z,99076.31
2022-10-17T08:11:31.872Z,99077.31
2022-10-17T08:13:58.367Z,99073.03
2022-10-17T08:16:24.919Z,99088.19
2022-10-17T08:18:51.580Z,99086.63
2022-10-17T08:21:18.127Z,99089.38
2022-10-17T08:23:44.593Z,99092.03
2022-10-17T08:26:13.525Z,99088.00
2022-10-17T08:28:40.626Z,99084.38
2022-10-17T08:31:10.104Z,99079.56
2022-10-17T08:33:36.688Z,99078.81
2022-10-17T08:36:05.568Z,99082.41
2022-10-17T08:38:35.598Z,99082.47
2022-10-17T08:41:24.532Z,99084.25
2022-10-17T08:44:17.403Z,99075.06
2022-10-17T08:46:48.056Z,99075.44
2022-10-17T08:49:25.528Z,99079.81
2022-10-17T08:51:58.954Z,99080.25
2022-10-17T08:54:41.260Z,99084.19
2022-10-17T08:57:13.330Z,99081.06
2022-10-17T08:59:40.002Z,99080.72
2022-10-17T09:02:27.282Z,99084.97
2022-10-17T09:05:22.438Z,99089.69
2022-10-17T09:08:09.183Z,99086.31
2022-10-17T09:10:56.962Z,99082.88
2022-10-17T09:13:32.553Z,99088.00
2022-10-17T09:16:21.349Z,99081.16
2022-10-17T09:19:01.172Z,99076.69
2022-10-17T09:21:39.599Z,99072.03
2022-10-17T09:24:16.282Z,99068.88
2022-10-17T09:26:45.456Z,99079.03
2022-10-17T09:29:20.108Z,99066.41
2022-10-17T09:34:31.578Z,99058.88
2022-10-17T09:37:00.992Z,99062.97
2022-10-17T09:39:33.036Z,99058.19
2022-10-17T09:42:01.559Z,99066.06
2022-10-17T09:44:33.085Z,99058.16
2022-10-17T09:47:20.512Z,99052.41
2022-10-17T09:49:48.502Z,99062.34
2022-10-17T09:52:27.914Z,99064.19
2022-10-17T09:54:57.492Z,99069.00
2022-10-17T09:57:24.299Z,99070.91
2022-10-17T10:00:00.107Z,99071.56
2022-10-17T10:02:29.664Z,99068.97
2022-10-17T10:05:07.108Z,99060.00
2022-10-17T10:07:37.355Z,99055.69
2022-10-17T10:10:07.167Z,99061.34
2022-10-17T10:12:37.464Z,99070.13
2022-10-17T10:15:32.766Z,99067.63
2022-10-17T10:17:59.388Z,99069.00
2022-10-17T10:20:36.911Z,99067.75
2022-10-17T10:23:18.335Z,99068.19
2022-10-17T10:25:59.265Z,99061.56
2022-10-17T10:28:32.093Z,99072.63
2022-10-17T10:31:04.740Z,99069.63
2022-10-17T10:33:33.720Z,99067.69
2022-10-17T10:36:09.890Z,99068.22
2022-10-17T10:38:40.950Z,99053.81
2022-10-17T10:41:09.781Z,99056.31
2022-10-17T10:43:42.317Z,99053.34
2022-10-17T10:46:27.409Z,99050.78
2022-10-17T10:49:01.659Z,99046.66
2022-10-17T10:51:41.383Z,99050.22
2022-10-17T10:54:23.514Z,99034.78
2022-10-17T10:56:54.214Z,99045.78
2022-10-17T10:59:39.692Z,99044.09
2022-10-17T11:02:24.850Z,99050.88
2022-10-17T11:04:58.266Z,99042.91
2022-10-17T11:07:36.230Z,99054.19
2022-10-17T11:10:44.477Z,99048.53
2022-10-17T11:13:16.974Z,99047.31
2022-10-17T11:15:53.786Z,99048.78
2022-10-17T11:18:55.089Z,99054.91
2022-10-17T11:22:03.725Z,99053.94
2022-10-17T11:24:38.918Z,99052.69
2022-10-17T11:27:07.237Z,99054.44
2022-10-17T11:29:39.602Z,99049.63
2022-10-17T11:32:21.754Z,99051.91
2022-10-17T11:34:53.669Z,99046.38
2022-10-17T11:37:29.194Z,99053.63
2022-10-17T11:40:33.728Z,99042.34
2022-10-17T11:43:24.440Z,99032.16
2022-10-17T11:45:57.054Z,99039.66
2022-10-17T11:48:34.193Z,99043.94
2022-10-17T11:54:34.067Z,99035.75
2022-10-17T11:57:28.346Z,99034.28
2022-10-17T12:00:18.578Z,99036.31
2022-10-17T12:02:53.436Z,99025.91
2022-10-17T12:05:57.481Z,99028.03
2022-10-17T12:08:25.252Z,99031.59
2022-10-17T12:11:01.139Z,99031.53
2022-10-17T12:13:28.144Z,99031.09
2022-10-17T12:15:56.018Z,99037.00
2022-10-17T12:18:28.120Z,99029.25
2022-10-17T12:21:00.078Z,99017.47
2022-10-17T12:23:32.119Z,99013.91
2022-10-17T12:26:05.123Z,99016.81
2022-10-17T12:28:37.696Z,99021.78
2022-10-17T12:31:10.166Z,99026.91
2022-10-17T12:33:39.515Z,99026.13
2022-10-17T12:36:18.646Z,99028.47
2022-10-17T12:38:50.942Z,99035.13
2022-10-17T12:41:40.227Z,99025.53
2022-10-17T12:44:12.807Z,99027.84
2022-10-17T12:46:44.328Z,99040.94
2022-10-17T12:49:48.058Z,99033.66
2022-10-17T12:52:22.127Z,99039.34
2022-10-17T12:55:13.008Z,99027.75
2022-10-17T12:57:56.827Z,99027.25
2022-10-17T13:00:37.318Z,99039.41
2022-10-17T13:03:11.801Z,99040.13
2022-10-17T13:05:42.501Z,99034.28
2022-10-17T13:08:21.071Z,99041.56
2022-10-17T13:10:52.434Z,99045.31
2022-10-17T13:13:23.799Z,99040.63
2022-10-17T13:15:53.000Z,99047.38
2022-10-17T13:18:25.738Z,99037.44
2022-10-17T13:21:07.089Z,99040.75
2022-10-17T13:23:37.836Z,99041.88
2022-10-17T13:26:07.411Z,99036.84
2022-10-17T13:28:38.506Z,99037.25
2022-10-17T13:31:06.528Z,99033.81
2022-10-17T13:33:37.895Z,99044.13
2022-10-17T13:36:08.296Z,99047.53
2022-10-17T13:38:38.951Z,99056.31
2022-10-17T13:41:34.948Z,99065.13
2022-10-17T13:44:03.655Z,99046.66
2022-10-17T13:46:38.339Z,99055.03
2022-10-17T13:49:15.474Z,99059.81
2022-10-17T13:51:47.943Z,99051.31
2022-10-17T13:54:43.339Z,99054.44
2022-10-17T13:57:17.804Z,99054.22
2022-10-17T13:59:47.944Z,99053.25
2022-10-17T14:02:20.890Z,99055.84
2022-10-17T14:10:38.939Z,99064.97
2022-10-17T14:13:08.334Z,99067.28
2022-10-17T14:15:36.791Z,99059.09
2022-10-17T14:18:07.976Z,99063.81
2022-10-17T14:23:38.143Z,99059.28
2022-10-17T14:26:19.852Z,99064.66
2022-10-17T14:28:49.641Z,99063.38
2022-10-17T14:31:25.696Z,99062.41
2022-10-17T14:33:54.031Z,99063.38
2022-10-17T14:36:30.620Z,99061.19
2022-10-17T14:38:57.375Z,99058.69
2022-10-17T14:41:43.714Z,99058.03
2022-10-17T14:44:32.182Z,99072.63
2022-10-17T14:47:18.338Z,99072.91
2022-10-17T14:49:51.327Z,99072.94
2022-10-17T14:52:18.843Z,99067.03
2022-10-17T14:54:48.046Z,99075.31
2022-10-17T14:57:27.508Z,99079.59
2022-10-17T14:59:56.305Z,99064.34
2022-10-17T15:02:27.506Z,99070.16
2022-10-17T15:04:54.947Z,99065.09
2022-10-17T15:07:22.200Z,99076.59
2022-10-17T15:09:50.628Z,99081.19
2022-10-17T15:12:22.483Z,99074.75
2022-10-17T15:14:50.698Z,99080.22
2022-10-17T15:17:20.979Z,99075.50
2022-10-17T15:19:48.494Z,99074.00
2022-10-17T15:22:16.407Z,99075.28
2022-10-17T15:24:43.150Z,99084.94
2022-10-17T15:27:29.604Z,99085.00
2022-10-17T15:29:56.374Z,99081.28
2022-10-17T15:32:22.832Z,99088.28
2022-10-17T15:34:49.479Z,99085.47
2022-10-17T15:37:25.148Z,99091.25
2022-10-17T15:39:54.578Z,99090.84
2022-10-17T15:42:23.013Z,99092.28
2022-10-17T15:44:50.424Z,99087.88
2022-10-17T15:47:31.247Z,99088.44
2022-10-17T15:49:58.605Z,99082.47
2022-10-17T15:52:25.798Z,99076.03
2022-10-17T15:54:53.355Z,99080.47
2022-10-17T15:57:26.271Z,99089.72
2022-10-17T15:59:54.374Z,99087.78
2022-10-17T16:02:22.642Z,99089.06
2022-10-17T16:04:50.624Z,99091.25
2022-10-17T16:07:19.102Z,99088.00
2022-10-17T16:09:45.963Z,99096.94
2022-10-17T16:12:19.058Z,99102.38
2022-10-17T16:14:45.636Z,99100.47
2022-10-17T16:17:16.438Z,99107.72
2022-10-17T16:19:43.595Z,99109.91
2022-10-17T16:22:20.838Z,99121.22
2022-10-17T16:24:47.415Z,99123.97
2022-10-17T16:27:14.072Z,99122.00
2022-10-17T16:29:40.589Z,99116.53
2022-10-17T16:32:07.141Z,99109.94
2022-10-17T16:34:33.716Z,99112.81
2022-10-17T16:37:00.339Z,99117.75
2022-10-17T16:41:57.678Z,99116.94
2022-10-17T16:44:25.273Z,99132.81
2022-10-17T16:46:51.807Z,99131.44
2022-10-17T16:49:18.336Z,99124.78
2022-10-17T16:51:44.961Z,99140.47
2022-10-17T16:54:11.463Z,99143.19
2022-10-17T16:56:38.013Z,99148.53
2022-10-17T16:59:04.594Z,99149.81
2022-10-17T17:01:31.116Z,99151.81
2022-10-17T17:03:57.701Z,99145.59
2022-10-17T17:06:27.521Z,99151.69
2022-10-17T17:08:55.466Z,99148.50
2022-10-17T17:11:24.605Z,99150.75
2022-10-17T17:13:51.883Z,99144.19
2022-10-17T17:16:23.765Z,99149.06
2022-10-17T17:18:55.479Z,99151.75
2022-10-17T17:21:22.482Z,99162.69
2022-10-17T17:23:49.333Z,99165.28
2022-10-17T17:26:18.971Z,99173.53
2022-10-17T17:28:46.488Z,99170.38
2022-10-17T17:31:16.636Z,99166.94
2022-10-17T17:33:44.057Z,99173.31
2022-10-17T17:36:13.813Z,99173.84
2022-10-17T17:38:41.382Z,99180.28
2022-10-17T17:41:07.971Z,99195.91
2022-10-17T17:43:35.796Z,99197.81
2022-10-17T17:46:02.645Z,99190.19
2022-10-17T17:48:29.229Z,99201.56
2022-10-17T17:50:55.860Z,99209.28
2022-10-17T17:53:22.606Z,99196.88
2022-10-17T17:56:00.224Z,99209.09
2022-10-17T17:58:26.713Z,99205.19
2022-10-17T18:00:53.308Z,99207.00
2022-10-17T18:03:19.904Z,99206.81
2022-10-17T18:05:46.468Z,99216.06
2022-10-17T18:08:13.028Z,99217.09
2022-10-17T18:10:39.566Z,99217.97
2022-10-17T18:13:06.116Z,99220.25
2022-10-17T18:15:32.747Z,99220.16
2022-10-17T18:18:00.106Z,99221.72
2022-10-17T18:20:27.748Z,99219.47
2022-10-17T18:22:54.205Z,99232.16
2022-10-17T18:25:20.714Z,99229.78
2022-10-17T18:27:48.057Z,99228.53
2022-10-17T18:30:14.830Z,99234.75
2022-10-17T18:32:41.307Z,99237.94
2022-10-17T18:35:08.156Z,99243.56
2022-10-17T18:37:34.734Z,99238.41
2022-10-17T18:40:03.085Z,99239.25
2022-10-17T18:42:30.080Z,99249.47
2022-10-17T18:44:56.876Z,99247.72
2022-10-17T18:47:23.368Z,99247.72
2022-10-17T18:49:49.993Z,99254.44
2022-10-17T18:52:16.563Z,99249.88
2022-10-17T18:54:43.068Z,99251.78
2022-10-17T18:57:09.567Z,99253.06
2022-10-17T18:59:37.023Z,99259.53
2022-10-17T19:02:03.613Z,99266.75
2022-10-17T19:04:30.094Z,99267.59
2022-10-17T19:06:56.622Z,99272.59
2022-10-17T19:09:23.119Z,99274.72
2022-10-17T19:11:49.634Z,99278.41
2022-10-17T19:14:16.232Z,99287.63
2022-10-17T19:16:48.181Z,99276.81
2022-10-17T19:19:17.990Z,99281.66
2022-10-17T19:21:45.155Z,99282.78
2022-10-17T19:24:15.970Z,99277.91
2022-10-17T19:26:43.923Z,99274.00
2022-10-17T19:29:13.913Z,99279.91
2022-10-17T19:31:40.967Z,99276.59
2022-10-17T19:34:07.570Z,99282.00
2022-10-17T19:36:35.313Z,99274.88
2022-10-17T19:39:05.708Z,99281.16
2022-10-17T19:41:32.843Z,99280.56
2022-10-17T19:44:00.043Z,99273.00
2022-10-17T19:46:27.931Z,99282.88
2022-10-17T19:48:54.461Z,99288.50
2022-10-17T19:51:24.594Z,99292.09
2022-10-17T19:53:52.352Z,99287.63
2022-10-17T19:56:21.086Z,99284.03
2022-10-17T19:58:49.085Z,99289.34
2022-10-17T20:01:18.299Z,99282.41
2022-10-17T20:03:45.069Z,99280.94
2022-10-17T20:06:12.402Z,99287.59
2022-10-17T20:08:40.208Z,99293.06
2022-10-17T20:11:09.427Z,99290.34
2022-10-17T20:13:36.776Z,99299.56
2022-10-17T20:16:04.026Z,99303.41
2022-10-17T20:18:30.895Z,99298.09
2022-10-17T20:21:03.651Z,99295.25
2022-10-17T20:23:30.169Z,99303.56
2022-10-17T20:26:13.566Z,99311.63
2022-10-17T20:28:48.863Z,99308.25
2022-10-17T20:31:16.172Z,99315.69
2022-10-17T20:33:42.715Z,99306.00
2022-10-17T20:36:11.795Z,99310.47
2022-10-17T20:38:38.290Z,99306.16
2022-10-17T20:41:06.922Z,99302.88
2022-10-17T20:43:34.979Z,99299.72
2022-10-17T20:46:09.685Z,99302.31
2022-10-17T20:48:42.373Z,99308.63
2022-10-17T20:51:10.691Z,99303.94
2022-10-17T20:53:37.929Z,99306.63
2022-10-17T20:56:08.206Z,99305.47
2022-10-17T20:58:35.211Z,99303.56
2022-10-17T21:01:20.611Z,99311.59
2022-10-17T21:03:47.448Z,99319.50
2022-10-17T21:06:14.775Z,99311.97
2022-10-17T21:08:41.581Z,99308.25
2022-10-17T21:11:09.227Z,99308.69
2022-10-17T21:13:35.762Z,99319.78
2022-10-17T21:16:14.561Z,99308.53
2022-10-17T21:18:41.921Z,99310.91
2022-10-17T21:21:26.777Z,99309.78
2022-10-17T21:23:56.165Z,99305.75
2022-10-17T21:26:22.675Z,99312.34
2022-10-17T21:28:50.232Z,99305.47
2022-10-17T21:31:19.451Z,99312.56
2022-10-17T21:33:48.659Z,99315.56
2022-10-17T21:36:17.163Z,99306.63
2022-10-17T21:38:48.594Z,99314.72
2022-10-17T21:41:16.704Z,99314.88
2022-10-17T21:43:43.614Z,99316.19
2022-10-17T21:46:12.528Z,99319.00
2022-10-17T21:48:39.392Z,99318.84
2022-10-17T21:51:10.721Z,99313.25
2022-10-17T21:53:37.525Z,99320.19
2022-10-17T21:56:06.944Z,99314.00
2022-10-17T21:58:34.026Z,99313.84
2022-10-17T22:01:16.766Z,99315.38
2022-10-17T22:03:48.274Z,99312.22
2022-10-17T22:09:05.529Z,99311.53
2022-10-17T22:11:35.195Z,99308.28
2022-10-17T22:14:07.254Z,99314.22
2022-10-17T22:16:34.723Z,99320.97
2022-10-17T22:19:05.943Z,99318.13
2022-10-17T22:21:34.726Z,99320.03
2022-10-17T22:24:03.877Z,99312.41
2022-10-17T22:26:32.772Z,99309.50
2022-10-17T22:28:59.663Z,99313.09
2022-10-17T22:31:26.631Z,99311.88
2022-10-17T22:33:53.414Z,99310.09
2022-10-17T22:36:20.215Z,99314.56
2022-10-17T22:38:46.767Z,99317.31
2022-10-17T22:41:13.306Z,99323.72
2022-10-17T22:43:39.853Z,99322.06
2022-10-17T22:46:07.454Z,99329.97
2022-10-17T22:48:34.411Z,99333.53
2022-10-17T22:51:01.350Z,99331.69
2022-10-17T22:53:29.581Z,99332.53
2022-10-17T22:55:58.554Z,99342.09
2022-10-17T22:58:25.589Z,99335.06
2022-10-17T23:00:53.315Z,99337.00
2022-10-17T23:03:21.435Z,99332.28
2022-10-17T23:05:48.346Z,99333.31
2022-10-17T23:08:15.502Z,99329.97
2022-10-17T23:10:42.202Z,99337.91
2022-10-17T23:13:08.677Z,99333.22
2022-10-17T23:15:35.364Z,99329.41
2022-10-17T23:18:02.510Z,99333.13
2022-10-17T23:20:30.398Z,99328.81
2022-10-17T23:22:58.161Z,99329.16
2022-10-17T23:25:25.476Z,99332.13
2022-10-17T23:27:51.950Z,99328.69
2022-10-17T23:30:18.633Z,99333.97
2022-10-17T23:32:45.346Z,99321.81
2022-10-17T23:35:12.461Z,99326.00
2022-10-17T23:37:38.915Z,99323.41
2022-10-17T23:40:06.580Z,99319.84
2022-10-17T23:42:33.141Z,99321.50
2022-10-17T23:44:59.636Z,99324.66
2022-10-17T23:47:26.106Z,99321.25
2022-10-17T23:49:52.651Z,99319.25
2022-10-17T23:52:19.127Z,99313.03
2022-10-17T23:54:45.690Z,99314.03
2022-10-17T23:57:12.218Z,99316.69
2022-10-17T23:59:38.739Z,99317.72
